createdAt,value
2023-05-10T00:01:51.590Z,101061.56
2023-05-10T00:04:18.944Z,101062.22
2023-05-10T00:06:46.057Z,101050.44
2023-05-10T00:09:13.137Z,101055.13
2023-05-10T00:11:40.214Z,101048.03
2023-05-10T00:14:07.277Z,101030.63
2023-05-10T00:16:34.520Z,101042.22
2023-05-10T00:19:01.604Z,101044.16
2023-05-10T00:21:29.510Z,101031.28
2023-05-10T00:23:56.583Z,101037.56
2023-05-10T00:26:23.646Z,101033.69
2023-05-10T00:28:53.606Z,101030.94
2023-05-10T00:31:20.840Z,101031.28
2023-05-10T00:33:48.087Z,101020.97
2023-05-10T00:36:15.179Z,101029.19
2023-05-10T00:38:42.194Z,101029.97
2023-05-10T00:41:09.685Z,101033.53
2023-05-10T00:43:38.977Z,101024.16
2023-05-10T00:46:07.050Z,101032.38
2023-05-10T00:48:34.776Z,101021.13
2023-05-10T00:51:03.081Z,101019.19
2023-05-10T00:53:32.606Z,101022.88
2023-05-10T00:56:00.672Z,101028.34
2023-05-10T00:58:29.432Z,101020.94
2023-05-10T01:00:59.776Z,101023.38
2023-05-10T01:03:27.484Z,101024.97
2023-05-10T01:05:54.616Z,101019.19
2023-05-10T01:08:22.260Z,101009.50
2023-05-10T01:10:50.370Z,101006.75
2023-05-10T01:13:33.045Z,101013.69
2023-05-10T01:16:03.074Z,101016.28
2023-05-10T01:18:36.624Z,101015.00
2023-05-10T01:21:33.157Z,101021.91
2023-05-10T01:24:41.231Z,101016.91
2023-05-10T01:27:36.055Z,101015.97
2023-05-10T01:30:18.052Z,101012.25
2023-05-10T01:32:59.020Z,101024.19
2023-05-10T01:35:44.333Z,101025.44
2023-05-10T01:38:41.643Z,101016.25
2023-05-10T01:41:19.205Z,101018.19
2023-05-10T01:44:37.204Z,101017.22
2023-05-10T01:47:18.324Z,101018.31
2023-05-10T01:49:53.100Z,101018.66
2023-05-10T01:52:31.704Z,101002.22
2023-05-10T01:55:06.053Z,101005.28
2023-05-10T01:57:40.429Z,101007.72
2023-05-10T02:00:09.963Z,101005.28
2023-05-10T02:02:47.244Z,101004.47
2023-05-10T02:05:16.696Z,101001.72
2023-05-10T02:07:44.885Z,100998.84
2023-05-10T02:10:14.600Z,101004.31
2023-05-10T02:12:48.790Z,100997.72
2023-05-10T02:15:22.097Z,100995.78
2023-05-10T02:17:49.967Z,100998.84
2023-05-10T02:20:20.413Z,100984.81
2023-05-10T02:22:52.012Z,100999.00
2023-05-10T02:25:22.350Z,100987.41
2023-05-10T02:27:51.283Z,100985.13
2023-05-10T02:30:20.154Z,100975.97
2023-05-10T02:32:49.357Z,100981.28
2023-05-10T02:35:17.475Z,100980.81
2023-05-10T02:37:46.418Z,100981.59
2023-05-10T02:40:16.062Z,100972.25
2023-05-10T02:42:44.921Z,100975.47
2023-05-10T02:45:16.461Z,100973.53
2023-05-10T02:47:44.954Z,100976.78
2023-05-10T02:50:12.351Z,100976.94
2023-05-10T02:52:49.291Z,100976.94
2023-05-10T02:55:19.116Z,100975.00
2023-05-10T02:57:54.793Z,100968.72
2023-05-10T03:00:21.935Z,100971.13
2023-05-10T03:02:49.130Z,100975.00
2023-05-10T03:05:16.890Z,100970.50
2023-05-10T03:07:44.558Z,100971.75
2023-05-10T03:10:12.073Z,100970.16
2023-05-10T03:12:58.260Z,100982.88
2023-05-10T03:15:54.596Z,100973.38
2023-05-10T03:18:24.764Z,100973.88
2023-05-10T03:21:02.918Z,100968.22
2023-05-10T03:23:40.300Z,100964.84
2023-05-10T03:26:09.298Z,100978.06
2023-05-10T03:28:37.469Z,100973.69
2023-05-10T03:31:07.378Z,100973.25
2023-05-10T03:33:35.099Z,100977.25
2023-05-10T03:36:02.357Z,100976.13
2023-05-10T03:38:30.653Z,100975.81
2023-05-10T03:40:58.090Z,100970.00
2023-05-10T03:43:25.289Z,100969.34
2023-05-10T03:45:52.812Z,100977.69
2023-05-10T03:48:20.017Z,100974.81
2023-05-10T03:50:47.079Z,100972.69
2023-05-10T03:53:14.458Z,100965.78
2023-05-10T03:55:41.459Z,100966.13
2023-05-10T03:58:12.259Z,100971.59
2023-05-10T04:00:44.714Z,100966.91
2023-05-10T04:03:13.245Z,100972.69
2023-05-10T04:05:40.604Z,100972.69
2023-05-10T04:08:08.396Z,100985.28
2023-05-10T04:10:35.532Z,100988.19
2023-05-10T04:13:02.566Z,100979.00
2023-05-10T04:15:29.910Z,100987.88
2023-05-10T04:17:56.946Z,100997.22
2023-05-10T04:20:24.186Z,101000.28
2023-05-10T04:22:51.365Z,101004.31
2023-05-10T04:25:18.481Z,101000.94
2023-05-10T04:27:45.530Z,101004.34
2023-05-10T04:30:12.881Z,101000.94
2023-05-10T04:32:40.050Z,101008.53
2023-05-10T04:35:07.528Z,101007.84
2023-05-10T04:37:34.674Z,100993.16
2023-05-10T04:40:01.754Z,100994.53
2023-05-10T04:42:28.974Z,100997.41
2023-05-10T04:44:56.029Z,101003.81
2023-05-10T04:47:23.139Z,100997.78
2023-05-10T04:49:50.169Z,100997.22
2023-05-10T04:52:18.611Z,100987.94
2023-05-10T04:54:45.564Z,100989.63
2023-05-10T04:57:12.754Z,100991.97
2023-05-10T04:59:39.754Z,100992.50
2023-05-10T05:02:06.920Z,100989.63
2023-05-10T05:04:34.003Z,100990.28
2023-05-10T05:07:01.186Z,100986.91
2023-05-10T05:09:28.227Z,100988.69
2023-05-10T05:11:55.469Z,100992.38
2023-05-10T05:14:22.476Z,100995.16
2023-05-10T05:16:49.712Z,100991.03
2023-05-10T05:19:16.972Z,101000.56
2023-05-10T05:21:44.413Z,100983.13
2023-05-10T05:24:12.359Z,100989.41
2023-05-10T05:26:39.966Z,100998.25
2023-05-10T05:29:07.045Z,101002.59
2023-05-10T05:31:34.288Z,101005.31
2023-05-10T05:34:01.303Z,101002.31
2023-05-10T05:36:28.276Z,101009.75
2023-05-10T05:38:56.120Z,101011.16
2023-05-10T05:41:23.640Z,101023.41
2023-05-10T05:43:50.771Z,101025.25
2023-05-10T05:46:17.906Z,101023.28
2023-05-10T05:48:44.949Z,101029.69
2023-05-10T05:51:12.547Z,101024.09
2023-05-10T05:53:39.566Z,101021.22
2023-05-10T05:56:06.998Z,101024.13
2023-05-10T05:58:34.145Z,101018.19
2023-05-10T06:01:01.152Z,101022.56
2023-05-10T06:03:28.415Z,101018.81
2023-05-10T06:05:55.419Z,101021.31
2023-05-10T06:08:22.763Z,101029.84
2023-05-10T06:10:49.747Z,101026.81
2023-05-10T06:13:16.917Z,101029.13
2023-05-10T06:15:44.063Z,101040.81
2023-05-10T06:18:11.179Z,101042.41
2023-05-10T06:20:38.238Z,101050.00
2023-05-10T06:23:05.521Z,101052.72
2023-05-10T06:25:32.610Z,101048.56
2023-05-10T06:27:59.668Z,101054.31
2023-05-10T06:30:30.355Z,101047.78
2023-05-10T06:32:58.145Z,101052.72
2023-05-10T06:35:25.796Z,101046.34
2023-05-10T06:37:53.336Z,101045.28
2023-05-10T06:40:20.604Z,101045.19
2023-05-10T06:42:48.780Z,101061.81
2023-05-10T06:45:16.864Z,101053.44
2023-05-10T06:47:44.877Z,101058.34
2023-05-10T06:50:14.796Z,101048.97
2023-05-10T06:52:41.940Z,101049.16
2023-05-10T06:55:09.887Z,101055.16
2023-05-10T06:57:37.357Z,101061.69
2023-05-10T07:00:07.638Z,101065.03
2023-05-10T07:02:34.953Z,101066.75
2023-05-10T07:05:03.440Z,101056.78
2023-05-10T07:07:31.009Z,101072.13
2023-05-10T07:09:58.821Z,101064.09
2023-05-10T07:12:26.633Z,101061.88
2023-05-10T07:14:53.978Z,101069.13
2023-05-10T07:17:21.336Z,101065.16
2023-05-10T07:19:48.772Z,101068.88
2023-05-10T07:22:19.102Z,101065.66
2023-05-10T07:24:46.691Z,101070.03
2023-05-10T07:27:14.216Z,101072.53
2023-05-10T07:29:41.536Z,101074.38
2023-05-10T07:32:08.664Z,101072.22
2023-05-10T07:34:35.911Z,101072.63
2023-05-10T07:37:03.234Z,101075.72
2023-05-10T07:39:30.450Z,101080.19
2023-05-10T07:41:57.550Z,101082.13
2023-05-10T07:44:24.708Z,101077.41
2023-05-10T07:46:51.998Z,101086.94
2023-05-10T07:49:19.233Z,101081.31
2023-05-10T07:51:46.514Z,101088.25
2023-05-10T07:54:13.970Z,101080.72
2023-05-10T07:56:46.615Z,101078.38
2023-05-10T07:59:17.249Z,101088.31
2023-05-10T08:01:45.392Z,101089.75
2023-05-10T08:04:13.045Z,101097.88
2023-05-10T08:06:41.031Z,101097.97
2023-05-10T08:09:08.597Z,101103.41
2023-05-10T08:11:36.313Z,101104.88
2023-05-10T08:14:03.534Z,101098.91
2023-05-10T08:16:30.801Z,101093.63
2023-05-10T08:18:57.960Z,101105.34
2023-05-10T08:21:25.087Z,101104.41
2023-05-10T08:23:52.234Z,101102.00
2023-05-10T08:26:19.443Z,101110.69
2023-05-10T08:28:46.503Z,101109.56
2023-05-10T08:31:13.653Z,101108.41
2023-05-10T08:33:42.196Z,101107.25
2023-05-10T08:36:10.439Z,101111.00
2023-05-10T08:38:38.687Z,101101.06
2023-05-10T08:41:07.341Z,101099.34
2023-05-10T08:43:37.098Z,101094.09
2023-05-10T08:46:06.478Z,101095.22
2023-05-10T08:48:36.074Z,101100.59
2023-05-10T08:51:04.867Z,101094.78
2023-05-10T08:53:34.280Z,101095.69
2023-05-10T08:56:04.859Z,101093.69
2023-05-10T08:58:32.403Z,101086.03
2023-05-10T09:01:00.857Z,101091.75
2023-05-10T09:03:27.973Z,101086.72
2023-05-10T09:05:56.945Z,101093.78
2023-05-10T09:08:27.352Z,101099.69
2023-05-10T09:10:56.253Z,101100.03
2023-05-10T09:13:24.550Z,101097.78
2023-05-10T09:15:52.652Z,101090.03
2023-05-10T09:18:20.096Z,101092.97
2023-05-10T09:20:47.473Z,101100.03
2023-05-10T09:23:14.540Z,101102.69
2023-05-10T09:25:43.467Z,101100.38
2023-05-10T09:28:12.016Z,101100.72
2023-05-10T09:30:40.365Z,101094.34
2023-05-10T09:33:07.579Z,101105.41
2023-05-10T09:35:34.789Z,101094.59
2023-05-10T09:38:05.495Z,101091.41
2023-05-10T09:40:33.284Z,101092.16
2023-05-10T09:43:03.020Z,101097.31
2023-05-10T09:45:32.346Z,101092.38
2023-05-10T09:48:00.963Z,101105.03
2023-05-10T09:50:28.870Z,101098.72
2023-05-10T09:53:01.377Z,101095.72
2023-05-10T09:55:40.314Z,101108.00
2023-05-10T09:58:11.784Z,101101.78
2023-05-10T10:00:44.178Z,101103.38
2023-05-10T10:03:20.372Z,101111.56
2023-05-10T10:05:49.044Z,101103.28
2023-05-10T10:08:17.966Z,101104.78
2023-05-10T10:10:47.669Z,101106.94
2023-05-10T10:13:16.027Z,101095.91
2023-05-10T10:15:43.782Z,101094.41
2023-05-10T10:18:16.597Z,101086.81
2023-05-10T10:20:43.973Z,101086.44
2023-05-10T10:23:11.199Z,101084.66
2023-05-10T10:25:39.854Z,101085.97
2023-05-10T10:28:46.604Z,101093.63
2023-05-10T10:31:18.882Z,101092.88
2023-05-10T10:34:03.608Z,101087.53
2023-05-10T10:36:31.536Z,101089.50
2023-05-10T10:39:03.988Z,101082.38
2023-05-10T10:41:35.592Z,101081.31
2023-05-10T10:44:27.566Z,101085.84
2023-05-10T10:47:19.664Z,101086.47
2023-05-10T10:49:57.641Z,101080.19
2023-05-10T10:52:42.064Z,101085.72
2023-05-10T10:55:10.224Z,101085.03
2023-05-10T10:58:05.335Z,101086.66
2023-05-10T11:00:34.609Z,101083.91
2023-05-10T11:03:15.949Z,101084.94
2023-05-10T11:05:45.630Z,101078.75
2023-05-10T11:08:15.702Z,101087.00
2023-05-10T11:10:53.275Z,101090.66
2023-05-10T11:13:30.601Z,101091.22
2023-05-10T11:15:58.540Z,101090.88
2023-05-10T11:18:29.895Z,101085.09
2023-05-10T11:21:01.128Z,101087.66
2023-05-10T11:23:32.930Z,101086.94
2023-05-10T11:26:03.402Z,101080.91
2023-05-10T11:28:30.528Z,101077.09
2023-05-10T11:30:58.342Z,101081.53
2023-05-10T11:33:25.585Z,101083.56
2023-05-10T11:35:52.603Z,101080.41
2023-05-10T11:38:19.793Z,101072.94
2023-05-10T11:40:46.965Z,101077.88
2023-05-10T11:43:14.043Z,101076.78
2023-05-10T11:45:42.640Z,101084.06
2023-05-10T11:48:09.778Z,101084.22
2023-05-10T11:50:36.978Z,101088.06
2023-05-10T11:53:04.070Z,101078.28
2023-05-10T11:55:34.871Z,101075.75
2023-05-10T11:58:03.528Z,101071.41
2023-05-10T12:00:31.481Z,101075.88
2023-05-10T12:02:59.362Z,101075.50
2023-05-10T12:05:26.920Z,101075.97
2023-05-10T12:07:54.118Z,101075.59
2023-05-10T12:10:28.249Z,101076.31
2023-05-10T12:12:55.486Z,101073.41
2023-05-10T12:15:24.777Z,101058.50
2023-05-10T12:17:52.373Z,101071.72
2023-05-10T12:20:24.714Z,101064.66
2023-05-10T12:22:58.944Z,101065.97
2023-05-10T12:25:32.563Z,101064.28
2023-05-10T12:28:03.823Z,101057.69
2023-05-10T12:30:33.004Z,101051.50
2023-05-10T12:33:11.190Z,101058.25
2023-05-10T12:35:51.821Z,101061.84
2023-05-10T12:38:44.220Z,101060.03
2023-05-10T12:41:14.909Z,101059.00
2023-05-10T12:43:42.264Z,101062.09
2023-05-10T12:46:10.909Z,101057.28
2023-05-10T12:48:38.937Z,101052.69
2023-05-10T12:51:06.625Z,101044.72
2023-05-10T12:53:33.707Z,101046.78
2023-05-10T12:56:00.924Z,101043.31
2023-05-10T12:58:35.451Z,101044.25
2023-05-10T13:01:03.501Z,101034.53
2023-05-10T13:03:30.803Z,101035.13
2023-05-10T13:05:57.841Z,101038.63
2023-05-10T13:08:25.280Z,101032.31
2023-05-10T13:10:52.460Z,101025.44
2023-05-10T13:13:19.581Z,101021.50
2023-05-10T13:15:46.582Z,101028.97
2023-05-10T13:18:14.188Z,101022.53
2023-05-10T13:20:41.376Z,101016.88
2023-05-10T13:23:08.402Z,101021.78
2023-05-10T13:25:35.604Z,101020.72
2023-05-10T13:28:03.188Z,101023.28
2023-05-10T13:30:30.488Z,101018.47
2023-05-10T13:32:57.553Z,101016.25
2023-05-10T13:35:24.725Z,101015.53
2023-05-10T13:37:51.792Z,101019.72
2023-05-10T13:40:19.101Z,101023.78
2023-05-10T13:42:46.589Z,101014.06
2023-05-10T13:45:14.435Z,101023.00
2023-05-10T13:47:42.174Z,101029.25
2023-05-10T13:50:09.516Z,101026.16
2023-05-10T13:52:36.732Z,101027.09
2023-05-10T13:55:04.204Z,101023.66
2023-05-10T13:57:31.573Z,101024.59
2023-05-10T13:59:58.737Z,101028.16
2023-05-10T14:02:26.974Z,101026.31
2023-05-10T14:04:54.142Z,101025.63
2023-05-10T14:07:21.121Z,101027.94
2023-05-10T14:09:48.266Z,101022.13
2023-05-10T14:12:15.763Z,101019.69
2023-05-10T14:14:43.036Z,101019.75
2023-05-10T14:17:12.138Z,101019.28
2023-05-10T14:19:40.106Z,101011.75
2023-05-10T14:22:07.415Z,101010.13
2023-05-10T14:24:34.473Z,101015.97
2023-05-10T14:27:01.797Z,101020.69
2023-05-10T14:29:29.020Z,101019.41
2023-05-10T14:31:56.168Z,101010.47
2023-05-10T14:34:23.908Z,101006.66
2023-05-10T14:36:51.720Z,101003.47
2023-05-10T14:39:19.696Z,101002.31
2023-05-10T14:41:48.249Z,100996.22
2023-05-10T14:44:16.543Z,100996.44
2023-05-10T14:46:43.673Z,100989.94
2023-05-10T14:49:10.722Z,100988.22
2023-05-10T14:51:38.504Z,100989.47
2023-05-10T14:54:07.273Z,100986.22
2023-05-10T14:56:34.669Z,100977.28
2023-05-10T14:59:01.699Z,100980.50
2023-05-10T15:01:29.911Z,100971.56
2023-05-10T15:03:57.980Z,100978.34
2023-05-10T15:06:33.494Z,100979.72
2023-05-10T15:09:01.320Z,100978.66
2023-05-10T15:11:28.499Z,100982.78
2023-05-10T15:13:55.664Z,100977.38
2023-05-10T15:16:23.675Z,100976.16
2023-05-10T15:18:52.019Z,100973.72
2023-05-10T15:21:19.151Z,100985.41
2023-05-10T15:23:46.316Z,100984.03
2023-05-10T15:26:13.417Z,100985.75
2023-05-10T15:28:40.596Z,100990.56
2023-05-10T15:31:07.983Z,100981.97
2023-05-10T15:33:35.189Z,100983.25
2023-05-10T15:36:02.222Z,100986.25
2023-05-10T15:38:29.479Z,100988.28
2023-05-10T15:40:59.145Z,100994.38
2023-05-10T15:43:26.113Z,100991.72
2023-05-10T15:45:53.217Z,100988.16
2023-05-10T15:48:20.241Z,100985.53
2023-05-10T15:50:47.423Z,100992.16
2023-05-10T15:53:14.621Z,100988.03
2023-05-10T15:55:41.644Z,100996.03
2023-05-10T15:58:08.935Z,101000.38
2023-05-10T16:00:36.159Z,101003.31
2023-05-10T16:03:03.515Z,101004.47
2023-05-10T16:05:33.722Z,100997.56
2023-05-10T16:08:01.928Z,101004.78
2023-05-10T16:10:33.267Z,100986.25
2023-05-10T16:13:00.755Z,100986.41
2023-05-10T16:15:27.799Z,100990.09
2023-05-10T16:17:55.297Z,100992.63
2023-05-10T16:20:22.453Z,100985.47
2023-05-10T16:22:49.712Z,100983.91
2023-05-10T16:25:17.303Z,100985.44
2023-05-10T16:27:44.909Z,100978.41
2023-05-10T16:30:12.576Z,100986.81
2023-05-10T16:32:39.949Z,100986.34
2023-05-10T16:35:07.891Z,100986.72
2023-05-10T16:37:35.141Z,100979.00
2023-05-10T16:40:02.317Z,100984.50
2023-05-10T16:42:29.481Z,100992.44
2023-05-10T16:44:56.529Z,100989.56
2023-05-10T16:47:26.909Z,100984.59
2023-05-10T16:49:54.181Z,100988.00
2023-05-10T16:52:21.286Z,100989.31
2023-05-10T16:54:48.548Z,100980.47
2023-05-10T16:57:15.651Z,100988.22
2023-05-10T16:59:42.870Z,100988.88
2023-05-10T17:02:09.918Z,100986.28
2023-05-10T17:04:37.252Z,100992.09
2023-05-10T17:07:04.873Z,100985.97
2023-05-10T17:09:31.940Z,100989.53
2023-05-10T17:11:59.082Z,100994.19
2023-05-10T17:14:26.637Z,100997.09
2023-05-10T17:16:55.557Z,100995.94
2023-05-10T17:19:25.638Z,100999.66
2023-05-10T17:21:54.264Z,100999.00
2023-05-10T17:24:22.208Z,101002.22
2023-05-10T17:26:50.211Z,100999.00
2023-05-10T17:29:20.141Z,100994.97
2023-05-10T17:31:47.697Z,100995.94
2023-05-10T17:34:14.954Z,100995.91
2023-05-10T17:36:42.499Z,100999.16
2023-05-10T17:39:09.654Z,100994.47
2023-05-10T17:41:36.641Z,100998.19
2023-05-10T17:44:03.702Z,101007.22
2023-05-10T17:46:30.876Z,101005.94
2023-05-10T17:48:58.131Z,101013.69
2023-05-10T17:51:25.221Z,101021.28
2023-05-10T17:53:52.896Z,101016.59
2023-05-10T17:56:20.065Z,101025.78
2023-05-10T17:58:47.249Z,101017.25
2023-05-10T18:01:14.846Z,101029.78
2023-05-10T18:03:42.522Z,101034.59
2023-05-10T18:06:10.707Z,101030.25
2023-05-10T18:08:38.525Z,101021.38
2023-05-10T18:11:06.100Z,101024.78
2023-05-10T18:13:33.858Z,101023.34
2023-05-10T18:16:01.295Z,101028.66
2023-05-10T18:18:28.938Z,101030.13
2023-05-10T18:20:58.058Z,101035.13
2023-05-10T18:23:25.641Z,101024.66
2023-05-10T18:25:53.434Z,101028.84
2023-05-10T18:28:20.489Z,101037.38
2023-05-10T18:30:48.056Z,101038.06
2023-05-10T18:33:15.026Z,101033.38
2023-05-10T18:35:42.539Z,101044.47
2023-05-10T18:38:13.671Z,101039.16
2023-05-10T18:40:41.915Z,101054.16
2023-05-10T18:43:09.133Z,101056.56
2023-05-10T18:45:36.413Z,101042.69
2023-05-10T18:48:03.647Z,101044.47
2023-05-10T18:50:30.835Z,101051.09
2023-05-10T18:52:57.929Z,101056.56
2023-05-10T18:55:28.600Z,101054.66
2023-05-10T18:57:55.837Z,101053.63
2023-05-10T19:00:23.789Z,101060.38
2023-05-10T19:02:53.983Z,101058.75
2023-05-10T19:05:21.432Z,101060.53
2023-05-10T19:07:48.653Z,101054.88
2023-05-10T19:10:17.966Z,101066.66
2023-05-10T19:12:46.592Z,101063.75
2023-05-10T19:15:20.921Z,101063.25
2023-05-10T19:17:50.720Z,101061.78
2023-05-10T19:20:36.065Z,101065.31
2023-05-10T19:25:36.223Z,101062.59
2023-05-10T19:28:05.997Z,101068.72
2023-05-10T19:30:33.392Z,101064.38
2023-05-10T19:33:05.944Z,101066.63
2023-05-10T19:35:33.282Z,101075.78
2023-05-10T19:38:04.449Z,101069.66
2023-05-10T19:40:31.876Z,101065.94
2023-05-10T19:43:00.592Z,101075.59
2023-05-10T19:45:28.088Z,101073.19
2023-05-10T19:47:55.609Z,101065.59
2023-05-10T19:50:23.911Z,101071.88
2023-05-10T19:52:52.917Z,101070.56
2023-05-10T19:55:32.513Z,101076.03
2023-05-10T19:58:05.436Z,101074.91
2023-05-10T20:00:33.201Z,101087.00
2023-05-10T20:03:08.406Z,101083.13
2023-05-10T20:05:37.207Z,101087.66
2023-05-10T20:08:10.525Z,101089.94
2023-05-10T20:10:38.327Z,101091.25
2023-05-10T20:13:09.596Z,101091.88
2023-05-10T20:15:37.209Z,101089.78
2023-05-10T20:18:06.428Z,101090.16
2023-05-10T20:20:35.226Z,101091.13
2023-05-10T20:23:03.199Z,101097.91
2023-05-10T20:25:30.643Z,101089.69
2023-05-10T20:27:59.581Z,101087.13
2023-05-10T20:30:33.599Z,101093.59
2023-05-10T20:33:04.631Z,101100.03
2023-05-10T20:35:34.455Z,101089.38
2023-05-10T20:38:07.598Z,101093.13
2023-05-10T20:40:36.902Z,101085.88
2023-05-10T20:43:08.483Z,101080.06
2023-05-10T20:45:37.910Z,101080.06
2023-05-10T20:48:07.912Z,101083.28
2023-05-10T20:50:36.468Z,101084.75
2023-05-10T20:53:03.540Z,101092.16
2023-05-10T20:55:32.556Z,101081.69
2023-05-10T20:58:02.854Z,101092.81
2023-05-10T21:00:32.032Z,101085.75
2023-05-10T21:02:59.099Z,101091.56
2023-05-10T21:05:27.811Z,101084.91
2023-05-10T21:07:54.994Z,101089.75
2023-05-10T21:10:22.249Z,101093.81
2023-05-10T21:12:49.915Z,101090.72
2023-05-10T21:15:17.829Z,101095.41
2023-05-10T21:17:45.978Z,101103.50
2023-05-10T21:20:13.732Z,101101.56
2023-05-10T21:22:40.830Z,101100.59
2023-05-10T21:25:08.342Z,101090.41
2023-05-10T21:27:35.590Z,101098.16
2023-05-10T21:30:02.705Z,101092.53
2023-05-10T21:32:29.949Z,101092.53
2023-05-10T21:34:57.012Z,101091.41
2023-05-10T21:37:24.171Z,101095.28
2023-05-10T21:39:52.949Z,101097.50
2023-05-10T21:42:20.113Z,101098.00
2023-05-10T21:44:47.275Z,101093.81
2023-05-10T21:47:14.439Z,101089.94
2023-05-10T21:49:41.509Z,101095.28
2023-05-10T21:52:08.740Z,101088.81
2023-05-10T21:54:37.424Z,101088.50
2023-05-10T21:57:04.494Z,101088.84
2023-05-10T21:59:31.696Z,101077.22
2023-05-10T22:01:58.754Z,101086.56
2023-05-10T22:04:26.109Z,101081.25
2023-05-10T22:06:53.083Z,101083.69
2023-05-10T22:09:20.258Z,101085.59
2023-05-10T22:11:48.744Z,101080.78
2023-05-10T22:14:15.841Z,101081.09
2023-05-10T22:16:42.830Z,101087.22
2023-05-10T22:19:10.083Z,101083.34
2023-05-10T22:21:37.309Z,101073.84
2023-05-10T22:24:04.488Z,101061.75
2023-05-10T22:26:31.542Z,101067.84
2023-05-10T22:28:58.667Z,101065.75
2023-05-10T22:31:25.785Z,101069.16
2023-05-10T22:33:52.832Z,101070.44
2023-05-10T22:36:19.951Z,101067.66
2023-05-10T22:38:47.180Z,101077.16
2023-05-10T22:41:14.356Z,101074.25
2023-05-10T22:43:41.339Z,101077.97
2023-05-10T22:46:08.525Z,101078.91
2023-05-10T22:48:35.994Z,101075.84
2023-05-10T22:51:03.255Z,101068.88
2023-05-10T22:53:30.452Z,101065.19
2023-05-10T22:55:57.789Z,101068.25
2023-05-10T22:58:24.889Z,101068.06
2023-05-10T23:00:51.951Z,101060.50
2023-05-10T23:03:19.084Z,101056.94
2023-05-10T23:05:46.305Z,101071.75
2023-05-10T23:08:13.663Z,101071.75
2023-05-10T23:10:40.714Z,101067.88
2023-05-10T23:13:08.080Z,101067.25
2023-05-10T23:15:36.403Z,101071.78
2023-05-10T23:18:06.063Z,101067.59
2023-05-10T23:20:33.305Z,101064.53
2023-05-10T23:23:00.325Z,101055.19
2023-05-10T23:25:27.493Z,101062.59
2023-05-10T23:27:54.475Z,101057.94
2023-05-10T23:30:23.107Z,101054.56
2023-05-10T23:32:50.208Z,101057.28
2023-05-10T23:35:17.386Z,101066.94
2023-05-10T23:37:44.459Z,101061.47
2023-05-10T23:40:12.006Z,101059.38
2023-05-10T23:42:39.168Z,101056.47
2023-05-10T23:45:06.513Z,101052.47
2023-05-10T23:47:33.661Z,101057.75
2023-05-10T23:50:00.739Z,101054.81
2023-05-10T23:52:27.876Z,101045.00
2023-05-10T23:54:54.866Z,101047.56
2023-05-10T23:57:22.016Z,101052.25
2023-05-10T23:59:49.124Z,101051.91
